Delawanna, New Jersey
Current Conditions -  °F | °C
As of 1:51 PM on Thursday 27 Nov 2014 (Local Time) from KTEB Reporting Station
Overcast Overcast  
Wind Chill: 32°   Ceiling: 2000
Heat Index: 37°   Visibility: 8mi
Dew Point: 32°   Wind: 6mph
Humidity: 82%   Direction: 300°WNW
Pressure: 29.97"   Gusts: NA
Location:  40.8318°N, 74.1362°W
Report Text: KTEB 271851Z 30005KT 8SM FEW012 BKN020 OVC039 03/00 A2997 RMK AO2 RAE47 SLP149 P0000 T00280000 $
Loading
Personal Weather Stations






























Interactive Weather Map New forecast layout! Learn more

10-Day Weather Forecast

Advertisements
Track Severe Weather on mobile